Time;durP1;ratioP1;P1;durP2;ratioP2;P2;SDS_P1;SDS_P2;PMS_P1;PMS_P2;Temp;Humidity;BMP_temperature;BMP_pressure;BME280_temperature;BME280_humidity;BME280_pressure;Samples;Min_cycle;Max_cycle;Signal;HPM_P1;HPM_P2
2023/08/02 00:01:33;;;;;;;5.75;2.13;;;17.50;78.70;;;;;;5052976;28;20052;-78
2023/08/02 00:03:59;;;;;;;4.60;2.00;;;17.40;78.80;;;;;;5034523;28;20056;-77
2023/08/02 00:06:27;;;;;;;6.45;2.30;;;17.40;78.90;;;;;;5051921;28;20041;-78
2023/08/02 00:08:52;;;;;;;3.05;1.90;;;17.40;79.10;;;;;;5053412;28;20045;-77
2023/08/02 00:11:18;;;;;;;3.67;1.85;;;17.40;79.20;;;;;;5036874;28;20051;-78
2023/08/02 00:13:44;;;;;;;4.20;1.83;;;17.30;79.20;;;;;;5053403;28;20040;-79
2023/08/02 00:16:10;;;;;;;7.32;2.28;;;17.30;79.30;;;;;;5053106;28;20037;-79
2023/08/02 00:18:36;;;;;;;4.07;1.83;;;17.30;79.40;;;;;;5052829;28;20052;-78
2023/08/02 00:21:02;;;;;;;4.82;2.13;;;17.20;79.40;;;;;;5053457;28;20037;-78
2023/08/02 00:23:28;;;;;;;2.70;1.73;;;17.20;79.50;;;;;;5053412;28;20044;-78
2023/08/02 00:25:53;;;;;;;4.82;2.10;;;17.30;79.60;;;;;;5053176;28;20037;-78
2023/08/02 00:28:19;;;;;;;5.68;1.95;;;17.20;79.60;;;;;;5003726;28;20519;-78
2023/08/02 00:30:46;;;;;;;5.03;2.20;;;17.20;79.70;;;;;;5054032;28;20060;-78
2023/08/02 00:33:13;;;;;;;5.47;1.92;;;17.20;79.70;;;;;;5053302;28;20073;-78
2023/08/02 00:38:18;;;;;;;6.22;2.13;;;17.20;79.80;;;;;;5090484;27;20510;-78
2023/08/02 00:40:43;;;;;;;6.38;2.22;;;17.20;80.00;;;;;;5089010;28;20510;-78
2023/08/02 00:43:09;;;;;;;5.43;2.13;;;17.10;80.00;;;;;;5089101;28;20082;-78
2023/08/02 00:45:36;;;;;;;3.15;1.95;;;17.10;80.10;;;;;;5071945;28;20506;-78
2023/08/02 00:48:02;;;;;;;5.93;2.17;;;17.10;80.20;;;;;;5088905;28;20094;-77
2023/08/02 00:50:30;;;;;;;4.40;2.10;;;17.10;80.20;;;;;;5071805;28;20388;-77
2023/08/02 00:52:56;;;;;;;4.88;2.28;;;17.10;80.20;;;;;;5088879;28;20033;-77
2023/08/02 00:55:22;;;;;;;5.60;2.40;;;17.10;80.30;;;;;;5071663;28;20544;-78
2023/08/02 00:57:48;;;;;;;6.97;2.30;;;17.10;80.30;;;;;;5088537;28;20079;-78
2023/08/02 01:00:14;;;;;;;4.35;2.15;;;17.10;80.40;;;;;;5071453;28;20127;-78
2023/08/02 01:02:40;;;;;;;5.72;2.63;;;17.10;80.40;;;;;;5071354;28;20240;-78
2023/08/02 01:05:06;;;;;;;8.15;3.40;;;17.10;80.40;;;;;;5088723;28;20044;-78
2023/08/02 01:08:02;;;;;;;6.65;3.17;;;17.10;80.50;;;;;;5070806;28;20056;-77
2023/08/02 01:10:54;;;;;;;4.68;2.55;;;17.10;80.60;;;;;;5088119;28;20412;-78
2023/08/02 01:13:21;;;;;;;8.57;2.92;;;17.10;80.50;;;;;;5088217;28;20040;-79
2023/08/02 01:15:48;;;;;;;8.15;3.08;;;17.00;80.60;;;;;;5088215;28;20146;-77
2023/08/02 01:18:14;;;;;;;5.53;2.60;;;17.00;80.70;;;;;;5087752;28;20126;-78
2023/08/02 01:20:40;;;;;;;5.68;2.47;;;17.00;80.70;;;;;;5087927;28;20553;-78
2023/08/02 01:23:06;;;;;;;8.00;3.45;;;17.00;80.70;;;;;;5070844;28;20036;-78
2023/08/02 01:25:33;;;;;;;8.65;3.33;;;17.00;80.70;;;;;;5087571;28;20032;-78
2023/08/02 01:28:16;;;;;;;6.07;2.65;;;17.00;80.80;;;;;;5054423;28;20040;-78
2023/08/02 01:30:42;;;;;;;5.00;2.50;;;17.00;80.70;;;;;;5087528;28;20044;-78
2023/08/02 01:33:08;;;;;;;8.30;3.65;;;17.00;80.80;;;;;;5087526;28;20040;-78
2023/08/02 01:35:34;;;;;;;6.00;3.05;;;17.00;80.90;;;;;;5054455;28;20040;-78
2023/08/02 01:38:01;;;;;;;7.78;2.97;;;17.00;80.90;;;;;;5087065;28;20067;-78
2023/08/02 01:40:26;;;;;;;7.95;3.17;;;17.00;80.90;;;;;;5070655;28;20037;-78
2023/08/02 01:42:52;;;;;;;8.60;3.42;;;16.90;80.80;;;;;;5070712;28;20055;-78
2023/08/02 01:45:18;;;;;;;6.18;3.03;;;16.90;80.90;;;;;;5087565;28;20398;-78
2023/08/02 01:47:43;;;;;;;9.25;3.55;;;16.90;81.00;;;;;;5067746;28;20127;-78
2023/08/02 01:50:09;;;;;;;12.93;4.63;;;16.90;81.10;;;;;;5056934;28;20044;-78
2023/08/02 01:52:35;;;;;;;14.63;3.90;;;16.90;81.20;;;;;;5057515;28;20075;-78
2023/08/02 01:55:01;;;;;;;9.50;3.75;;;16.80;81.20;;;;;;5040293;28;20375;-77
2023/08/02 01:57:26;;;;;;;7.40;3.28;;;16.80;81.30;;;;;;5073549;28;20090;-77
2023/08/02 01:59:52;;;;;;;7.70;3.05;;;16.80;81.40;;;;;;5040655;28;20086;-78
2023/08/02 02:02:18;;;;;;;10.77;3.78;;;16.80;81.40;;;;;;5056825;28;20474;-77
2023/08/02 02:04:44;;;;;;;12.23;4.22;;;16.80;81.60;;;;;;5056756;28;20032;-79
2023/08/02 02:07:10;;;;;;;12.35;4.28;;;16.80;81.70;;;;;;5073109;28;20053;-77
2023/08/02 02:09:35;;;;;;;9.00;3.42;;;16.80;81.70;;;;;;5056836;28;20036;-78
2023/08/02 02:12:01;;;;;;;12.10;3.83;;;16.80;81.80;;;;;;5073137;28;20040;-77
2023/08/02 02:14:27;;;;;;;11.55;4.45;;;16.80;81.90;;;;;;5056591;28;20129;-77
2023/08/02 02:16:53;;;;;;;12.77;3.85;;;16.70;81.90;;;;;;5039598;28;20051;-77
2023/08/02 02:19:18;;;;;;;9.18;3.92;;;16.70;82.00;;;;;;5040127;28;20136;-77
2023/08/02 02:21:44;;;;;;;12.70;4.00;;;16.70;82.00;;;;;;5073135;28;20094;-77
2023/08/02 02:24:10;;;;;;;11.40;4.65;;;16.70;82.10;;;;;;5072791;28;20436;-77
2023/08/02 02:26:36;;;;;;;15.95;5.18;;;16.70;82.20;;;;;;5073351;28;20117;-78
2023/08/02 02:29:02;;;;;;;18.17;5.03;;;16.70;82.30;;;;;;5056308;28;20051;-77
2023/08/02 02:31:27;;;;;;;16.65;6.70;;;16.70;82.40;;;;;;5039751;28;20484;-77
2023/08/02 02:33:53;;;;;;;12.90;5.03;;;16.70;82.50;;;;;;5072793;28;20071;-77
2023/08/02 02:36:19;;;;;;;10.95;5.15;;;16.70;82.60;;;;;;5072603;28;20053;-77
2023/08/02 02:38:45;;;;;;;15.65;5.75;;;16.60;82.60;;;;;;5055344;28;20124;-77
2023/08/02 02:41:10;;;;;;;16.52;5.22;;;16.60;82.70;;;;;;5039668;28;20044;-78
2023/08/02 02:43:36;;;;;;;11.55;4.95;;;16.60;82.80;;;;;;5056551;28;20040;-77
2023/08/02 02:46:02;;;;;;;14.98;4.85;;;16.60;83.00;;;;;;5072404;28;20044;-77
2023/08/02 02:48:28;;;;;;;12.50;4.75;;;16.60;83.10;;;;;;5072555;28;20086;-77
2023/08/02 02:50:53;;;;;;;11.60;4.22;;;16.50;83.10;;;;;;5072487;28;20037;-77
2023/08/02 02:53:20;;;;;;;16.65;5.10;;;16.50;83.10;;;;;;5055949;28;20152;-78
2023/08/02 02:55:46;;;;;;;17.77;5.78;;;16.50;83.10;;;;;;5072593;28;20392;-77
2023/08/02 02:58:12;;;;;;;19.98;6.60;;;16.50;83.10;;;;;;5055666;28;20040;-76
2023/08/02 03:00:38;;;;;;;14.75;5.55;;;16.50;83.10;;;;;;5038342;28;20484;-77
2023/08/02 03:03:04;;;;;;;16.45;5.03;;;16.50;83.10;;;;;;5072135;28;20043;-77
2023/08/02 03:05:29;;;;;;;15.15;5.78;;;16.40;83.00;;;;;;5072172;28;20043;-77
2023/08/02 03:07:55;;;;;;;15.23;5.82;;;16.50;82.90;;;;;;5072244;28;20040;-78
2023/08/02 03:10:21;;;;;;;10.25;4.90;;;16.40;82.70;;;;;;5055482;28;20048;-77
2023/08/02 03:12:49;;;;;;;13.65;5.65;;;16.40;82.60;;;;;;5039399;28;20040;-78
2023/08/02 03:15:15;;;;;;;18.90;5.60;;;16.40;82.60;;;;;;5071917;28;20074;-78
2023/08/02 03:17:40;;;;;;;16.35;5.10;;;16.40;82.60;;;;;;5055304;28;20051;-77
2023/08/02 03:20:07;;;;;;;14.00;6.50;;;16.40;82.50;;;;;;5055088;28;20159;-77
2023/08/02 03:22:33;;;;;;;11.25;5.10;;;16.30;82.40;;;;;;5055296;28;20068;-78
2023/08/02 03:24:59;;;;;;;11.82;5.25;;;16.30;82.30;;;;;;5071929;28;20036;-77
2023/08/02 03:27:25;;;;;;;11.15;5.30;;;16.30;82.30;;;;;;5055132;28;20123;-77
2023/08/02 03:29:50;;;;;;;15.85;5.28;;;16.30;82.30;;;;;;5055055;28;20200;-78
2023/08/02 03:32:16;;;;;;;14.75;6.05;;;16.20;82.10;;;;;;5046504;28;20068;-77
2023/08/02 03:34:42;;;;;;;11.05;5.20;;;16.20;82.00;;;;;;5051837;28;20048;-78
2023/08/02 03:37:07;;;;;;;11.18;4.93;;;16.20;82.00;;;;;;5034673;28;20442;-78
2023/08/02 03:39:33;;;;;;;11.45;4.82;;;16.20;82.00;;;;;;5035068;28;20044;-78
2023/08/02 03:41:59;;;;;;;13.27;5.53;;;16.10;82.00;;;;;;5051367;28;20399;-77
2023/08/02 03:44:24;;;;;;;13.23;5.20;;;16.10;82.00;;;;;;5051444;28;20043;-78
2023/08/02 03:46:50;;;;;;;11.65;5.07;;;16.10;81.90;;;;;;5051545;28;20041;-77
2023/08/02 03:49:16;;;;;;;16.20;5.35;;;16.10;82.00;;;;;;5034902;28;20071;-77
2023/08/02 03:51:41;;;;;;;11.55;5.60;;;16.10;81.90;;;;;;5051322;28;20094;-78
2023/08/02 03:54:08;;;;;;;12.80;5.78;;;16.10;81.90;;;;;;5051434;28;20127;-78
2023/08/02 03:56:33;;;;;;;11.27;5.68;;;16.00;81.80;;;;;;5051264;28;20505;-77
2023/08/02 03:58:59;;;;;;;12.45;6.22;;;16.00;81.80;;;;;;5018446;28;20072;-77
2023/08/02 04:01:25;;;;;;;16.00;5.35;;;16.00;81.90;;;;;;5051075;28;20399;-77
2023/08/02 04:03:51;;;;;;;11.52;5.40;;;16.00;82.30;;;;;;5034646;28;20098;-78
2023/08/02 04:06:16;;;;;;;10.88;5.82;;;15.90;81.90;;;;;;5051381;28;20053;-77
2023/08/02 04:08:42;;;;;;;11.88;5.82;;;15.90;82.10;;;;;;5018112;28;20341;-78
2023/08/02 04:11:08;;;;;;;10.68;5.60;;;15.90;82.10;;;;;;5017508;28;20040;-78
2023/08/02 04:13:34;;;;;;;9.57;4.70;;;15.90;82.10;;;;;;5050769;28;20077;-78
2023/08/02 04:16:01;;;;;;;10.85;5.25;;;15.90;82.20;;;;;;5050614;28;20072;-77
2023/08/02 04:18:27;;;;;;;9.80;6.07;;;15.90;82.30;;;;;;5050803;28;20037;-77
2023/08/02 04:20:53;;;;;;;10.60;5.50;;;15.90;82.30;;;;;;5051223;28;20071;-78
2023/08/02 04:23:18;;;;;;;9.48;5.47;;;15.90;82.40;;;;;;5051335;28;20527;-77
2023/08/02 04:25:44;;;;;;;12.60;6.07;;;15.80;82.40;;;;;;5034777;28;20037;-77
2023/08/02 04:28:10;;;;;;;13.20;5.93;;;15.80;82.50;;;;;;5047693;28;20207;-77
2023/08/02 04:30:36;;;;;;;14.10;6.07;;;15.80;82.60;;;;;;5054253;28;20064;-77
2023/08/02 04:33:01;;;;;;;14.10;5.10;;;15.80;82.70;;;;;;5054039;28;20044;-77
2023/08/02 04:35:29;;;;;;;13.15;5.60;;;15.80;83.30;;;;;;5022316;28;20131;-77
2023/08/02 04:37:54;;;;;;;13.50;6.05;;;15.80;83.00;;;;;;5054687;28;20507;-77
2023/08/02 04:40:20;;;;;;;14.27;7.05;;;15.70;82.90;;;;;;5037531;28;20049;-78
2023/08/02 04:42:47;;;;;;;14.07;6.75;;;15.70;83.10;;;;;;5071007;28;20037;-78
2023/08/02 04:45:13;;;;;;;12.48;6.72;;;15.70;83.10;;;;;;5054097;28;20123;-77
2023/08/02 04:47:39;;;;;;;12.82;6.40;;;15.70;83.70;;;;;;5053916;28;20046;-77
2023/08/02 04:50:06;;;;;;;13.05;6.40;;;15.70;83.40;;;;;;5071368;28;20066;-77
2023/08/02 04:52:33;;;;;;;17.38;7.40;;;15.70;83.50;;;;;;5072442;28;20044;-77
2023/08/02 04:54:59;;;;;;;10.82;6.07;;;15.60;83.50;;;;;;5071834;28;20056;-77
2023/08/02 04:57:25;;;;;;;13.98;6.38;;;15.60;83.70;;;;;;5038176;28;20048;-76
2023/08/02 04:59:54;;;;;;;15.35;6.35;;;15.60;83.80;;;;;;5038466;28;20036;-76
2023/08/02 05:02:21;;;;;;;11.40;6.70;;;15.60;83.90;;;;;;5054889;28;20098;-78
2023/08/02 05:04:52;;;;;;;11.32;7.00;;;15.60;84.10;;;;;;5072459;28;20087;-78
2023/08/02 05:07:18;;;;;;;14.52;6.05;;;15.60;84.10;;;;;;5054994;28;20048;-77
2023/08/02 05:09:44;;;;;;;14.35;6.60;;;15.60;84.20;;;;;;5055771;28;20049;-78
2023/08/02 05:12:09;;;;;;;15.40;6.47;;;15.60;84.20;;;;;;5054965;28;20496;-77
2023/08/02 05:14:35;;;;;;;12.75;7.45;;;15.50;84.30;;;;;;5038398;28;20045;-78
2023/08/02 05:17:01;;;;;;;16.70;7.28;;;15.60;84.40;;;;;;5037992;28;20067;-77
2023/08/02 05:19:27;;;;;;;12.10;6.50;;;15.50;84.40;;;;;;5071090;28;20045;-77
2023/08/02 05:21:53;;;;;;;11.98;6.55;;;15.50;84.50;;;;;;5044259;28;20100;-77
2023/08/02 05:24:18;;;;;;;13.00;5.97;;;15.50;84.50;;;;;;5054087;28;20041;-77
2023/08/02 05:26:44;;;;;;;16.15;7.53;;;15.50;84.60;;;;;;5055160;28;20127;-77
2023/08/02 05:29:10;;;;;;;13.57;7.47;;;15.50;84.60;;;;;;5037924;28;20037;-77
2023/08/02 05:31:35;;;;;;;13.48;7.13;;;15.50;84.70;;;;;;5054907;28;20044;-78
2023/08/02 05:34:01;;;;;;;14.43;7.57;;;15.50;84.90;;;;;;5038718;28;20186;-78
2023/08/02 05:36:27;;;;;;;16.13;8.07;;;15.50;85.00;;;;;;5021012;28;20114;-78
2023/08/02 05:38:53;;;;;;;12.63;7.15;;;15.50;85.00;;;;;;5054545;28;20095;-77
2023/08/02 05:41:18;;;;;;;22.77;8.07;;;15.60;85.10;;;;;;5055042;28;20041;-78
2023/08/02 05:43:44;;;;;;;10.52;6.88;;;15.60;85.10;;;;;;5038309;28;20134;-78
2023/08/02 05:46:11;;;;;;;11.15;6.60;;;15.60;85.20;;;;;;5021902;28;20033;-78
2023/08/02 05:48:37;;;;;;;13.73;7.05;;;15.60;85.20;;;;;;5054656;28;20480;-77
2023/08/02 05:51:02;;;;;;;12.43;6.60;;;15.60;85.20;;;;;;5037790;28;20037;-78
2023/08/02 05:53:28;;;;;;;12.48;6.93;;;15.60;85.30;;;;;;5054599;28;20033;-76
2023/08/02 05:55:55;;;;;;;10.68;6.07;;;15.70;85.40;;;;;;5020794;28;20033;-76
2023/08/02 05:58:21;;;;;;;10.75;6.35;;;15.70;85.40;;;;;;5053700;28;20052;-76
2023/08/02 06:00:47;;;;;;;14.32;7.35;;;15.70;85.30;;;;;;5036988;28;20038;-76
2023/08/02 06:03:12;;;;;;;10.90;6.70;;;15.70;85.40;;;;;;5020928;28;20135;-76
2023/08/02 06:05:38;;;;;;;11.73;6.82;;;15.70;85.40;;;;;;5037032;28;20417;-76
2023/08/02 06:08:04;;;;;;;11.20;6.50;;;15.80;85.30;;;;;;5037142;28;20067;-76
2023/08/02 06:10:30;;;;;;;11.80;6.93;;;15.80;85.30;;;;;;5004159;28;20124;-76
2023/08/02 06:12:57;;;;;;;11.00;6.30;;;15.80;85.40;;;;;;5037294;28;20075;-76
2023/08/02 06:15:23;;;;;;;11.60;6.57;;;15.80;85.60;;;;;;5026184;28;20540;-76
2023/08/02 06:17:49;;;;;;;16.45;7.00;;;15.80;85.40;;;;;;5072923;28;20120;-77
2023/08/02 06:20:14;;;;;;;11.60;6.25;;;15.80;85.50;;;;;;5073149;28;20044;-77
2023/08/02 06:22:41;;;;;;;12.35;5.75;;;15.90;85.50;;;;;;5056339;28;20476;-77
2023/08/02 06:25:07;;;;;;;11.00;6.00;;;15.90;85.50;;;;;;5056118;28;20040;-77
2023/08/02 06:27:32;;;;;;;9.43;5.50;;;15.90;85.50;;;;;;5056254;28;20142;-77
2023/08/02 06:29:58;;;;;;;12.25;5.75;;;16.00;85.60;;;;;;5072837;28;20136;-77
2023/08/02 06:32:24;;;;;;;10.98;5.57;;;16.00;85.60;;;;;;5055845;28;20042;-77
2023/08/02 06:34:50;;;;;;;10.07;5.95;;;16.00;85.40;;;;;;5039344;28;20037;-77
2023/08/02 06:37:16;;;;;;;10.75;5.13;;;16.00;85.30;;;;;;5038993;28;20059;-76
2023/08/02 06:39:41;;;;;;;12.48;5.63;;;16.10;85.20;;;;;;5072532;28;20385;-77
2023/08/02 06:42:07;;;;;;;14.15;5.32;;;16.10;85.10;;;;;;5055796;28;20131;-76
2023/08/02 06:44:33;;;;;;;10.82;5.20;;;16.10;85.00;;;;;;5072765;28;20047;-77
2023/08/02 06:46:58;;;;;;;11.18;5.22;;;16.10;84.90;;;;;;5039644;28;20036;-77
2023/08/02 06:49:24;;;;;;;10.38;4.95;;;16.10;84.80;;;;;;5056298;28;20044;-77
2023/08/02 06:51:50;;;;;;;9.57;4.90;;;16.10;84.80;;;;;;5072931;28;20044;-77
2023/08/02 06:54:15;;;;;;;8.18;4.25;;;16.10;84.80;;;;;;5056323;28;20041;-77
2023/08/02 06:56:42;;;;;;;10.13;4.82;;;16.10;84.70;;;;;;5039278;28;20044;-76
2023/08/02 06:59:08;;;;;;;11.43;5.50;;;16.10;84.70;;;;;;5056341;28;20040;-77
2023/08/02 07:01:33;;;;;;;9.50;4.65;;;16.10;84.70;;;;;;5056020;28;20416;-77
2023/08/02 07:03:59;;;;;;;10.07;4.93;;;16.10;84.80;;;;;;5072193;28;20109;-77
2023/08/02 07:06:25;;;;;;;10.93;5.38;;;16.20;84.80;;;;;;5039506;28;20040;-78
2023/08/02 07:08:50;;;;;;;11.00;4.47;;;16.10;84.70;;;;;;5039711;28;20426;-78
2023/08/02 07:11:16;;;;;;;9.02;4.65;;;16.10;84.80;;;;;;5056641;28;20144;-78
2023/08/02 07:13:44;;;;;;;9.25;4.18;;;16.10;84.80;;;;;;5072600;28;20499;-77
2023/08/02 07:16:10;;;;;;;9.25;5.00;;;16.20;84.90;;;;;;5055935;28;20037;-78
2023/08/02 07:18:36;;;;;;;12.05;4.70;;;16.20;85.30;;;;;;5072396;28;20079;-79
2023/08/02 07:21:06;;;;;;;9.50;4.35;;;16.10;84.80;;;;;;5055697;28;20040;-77
2023/08/02 07:23:32;;;;;;;10.30;4.18;;;16.20;84.90;;;;;;5039277;28;20048;-78
2023/08/02 07:25:58;;;;;;;9.15;4.68;;;16.20;85.00;;;;;;5055875;28;20045;-78
2023/08/02 07:28:24;;;;;;;10.27;4.57;;;16.20;85.00;;;;;;5072409;28;20051;-77
2023/08/02 07:30:49;;;;;;;8.30;5.05;;;16.20;85.00;;;;;;5072402;28;20468;-76
2023/08/02 07:33:15;;;;;;;13.63;5.20;;;16.20;85.10;;;;;;5055309;28;20479;-76
2023/08/02 07:35:41;;;;;;;9.75;4.38;;;16.10;85.20;;;;;;5038814;28;20041;-77
2023/08/02 07:38:06;;;;;;;11.23;5.38;;;16.10;85.30;;;;;;5038457;28;20049;-76
2023/08/02 07:40:32;;;;;;;9.10;4.97;;;16.10;85.30;;;;;;5055318;28;20155;-82
2023/08/02 07:42:58;;;;;;;12.82;5.43;;;16.10;85.40;;;;;;5055762;28;20035;-82
2023/08/02 07:45:23;;;;;;;10.88;5.47;;;16.10;85.60;;;;;;5039094;28;20048;-81
2023/08/02 07:47:49;;;;;;;8.82;5.22;;;16.10;85.70;;;;;;5055786;28;20470;-80
2023/08/02 07:50:15;;;;;;;12.23;6.05;;;16.00;85.80;;;;;;5054980;28;20045;-80
2023/08/02 07:52:40;;;;;;;9.88;4.95;;;16.00;85.90;;;;;;5055377;28;20048;-82
2023/08/02 07:55:06;;;;;;;9.90;4.95;;;16.10;86.00;;;;;;5054832;28;20051;-80
2023/08/02 07:57:34;;;;;;;9.98;4.88;;;16.00;86.00;;;;;;5055285;28;20487;-80
2023/08/02 07:59:59;;;;;;;8.20;4.88;;;16.00;86.20;;;;;;5055445;28;20044;-80
2023/08/02 08:02:26;;;;;;;7.00;5.18;;;16.00;86.20;;;;;;5071943;28;20119;-79
2023/08/02 08:04:52;;;;;;;9.88;5.22;;;15.90;86.20;;;;;;5071796;28;20036;-79
2023/08/02 08:07:18;;;;;;;9.20;4.90;;;15.90;86.40;;;;;;5071811;28;20174;-79
2023/08/02 08:09:45;;;;;;;12.70;5.60;;;15.90;86.50;;;;;;5072083;28;20119;-79
2023/08/02 08:12:11;;;;;;;8.52;5.18;;;15.90;87.00;;;;;;5038899;28;20499;-78
2023/08/02 08:14:37;;;;;;;8.23;4.60;;;15.90;86.60;;;;;;5071540;28;20063;-79
2023/08/02 08:17:03;;;;;;;9.98;5.82;;;15.90;86.70;;;;;;5055225;28;20094;-79
2023/08/02 08:19:30;;;;;;;9.40;5.55;;;15.80;86.60;;;;;;5055179;28;20040;-79
2023/08/02 08:21:56;;;;;;;9.77;4.72;;;15.80;86.70;;;;;;5071826;28;20047;-80
2023/08/02 08:24:22;;;;;;;10.35;5.78;;;15.80;86.80;;;;;;5038554;28;20033;-80
2023/08/02 08:26:48;;;;;;;9.68;5.53;;;15.80;87.00;;;;;;5022310;28;20040;-79
2023/08/02 08:29:14;;;;;;;9.00;4.57;;;15.80;87.10;;;;;;5038285;28;20367;-80
2023/08/02 08:31:39;;;;;;;10.95;5.68;;;15.80;87.60;;;;;;5038614;28;20044;-79
2023/08/02 08:34:05;;;;;;;12.48;5.82;;;15.80;87.30;;;;;;5055692;28;20131;-79
2023/08/02 08:36:31;;;;;;;9.52;5.20;;;15.80;87.40;;;;;;5038395;28;20447;-79
2023/08/02 08:38:57;;;;;;;12.82;6.55;;;15.80;87.40;;;;;;5054847;28;20045;-80
2023/08/02 08:41:23;;;;;;;10.23;5.30;;;15.80;87.60;;;;;;5054686;28;20047;-79
2023/08/02 08:43:49;;;;;;;12.35;5.63;;;15.70;87.70;;;;;;5055410;28;20028;-80
2023/08/02 08:46:15;;;;;;;12.35;6.25;;;15.80;87.80;;;;;;5038323;28;20483;-78
2023/08/02 08:48:42;;;;;;;14.38;6.63;;;15.80;88.00;;;;;;5038571;28;20037;-78
2023/08/02 08:51:13;;;;;;;14.73;6.95;;;15.80;88.10;;;;;;5071917;28;20041;-78
2023/08/02 08:53:42;;;;;;;11.57;6.63;;;15.80;88.70;;;;;;5056071;28;20372;-79
2023/08/02 08:56:09;;;;;;;10.02;6.55;;;15.90;88.80;;;;;;5055350;28;20040;-78
2023/08/02 08:58:37;;;;;;;11.70;6.97;;;15.90;88.90;;;;;;5072924;28;20555;-78
2023/08/02 09:01:04;;;;;;;13.50;6.95;;;15.90;89.00;;;;;;5058443;28;20037;-78
2023/08/02 09:03:30;;;;;;;10.77;7.20;;;16.00;89.00;;;;;;5059688;28;20119;-78
2023/08/02 09:06:00;;;;;;;9.15;6.55;;;16.00;89.10;;;;;;5059450;28;20098;-78
2023/08/02 09:08:26;;;;;;;11.50;7.85;;;16.00;89.10;;;;;;5075796;28;20503;-79
2023/08/02 09:10:52;;;;;;;9.43;6.68;;;16.00;89.10;;;;;;5058488;28;20045;-78
2023/08/02 09:13:27;;;;;;;11.23;6.85;;;16.00;89.20;;;;;;5058617;28;20055;-78
2023/08/02 09:16:08;;;;;;;13.05;7.13;;;16.10;89.30;;;;;;5041598;28;20491;-78
2023/08/02 09:18:44;;;;;;;11.55;6.68;;;16.10;89.40;;;;;;5058011;28;20487;-77
2023/08/02 09:21:15;;;;;;;9.88;6.65;;;16.10;89.50;;;;;;5074992;28;20045;-77
2023/08/02 09:23:58;;;;;;;10.68;7.03;;;16.20;89.50;;;;;;5042286;28;20059;-77
2023/08/02 09:26:24;;;;;;;10.07;6.40;;;16.20;89.60;;;;;;5041689;28;20384;-79
2023/08/02 09:29:04;;;;;;;7.75;6.95;;;16.20;89.60;;;;;;5041312;28;20032;-78
2023/08/02 09:31:35;;;;;;;11.52;6.72;;;16.20;89.60;;;;;;5058122;28;20080;-78
2023/08/02 09:34:02;;;;;;;9.65;6.28;;;16.30;89.70;;;;;;5057673;28;20040;-77
2023/08/02 09:36:29;;;;;;;8.57;6.28;;;16.30;89.60;;;;;;5057378;28;20124;-78
2023/08/02 09:38:55;;;;;;;6.53;5.35;;;16.30;89.60;;;;;;5058136;28;20127;-77
2023/08/02 09:41:22;;;;;;;7.40;4.90;;;16.30;89.60;;;;;;5057737;28;20040;-77
2023/08/02 09:43:48;;;;;;;7.50;5.53;;;16.30;89.50;;;;;;5074223;28;20067;-77
2023/08/02 09:46:35;;;;;;;8.60;5.75;;;16.30;89.50;;;;;;5057590;28;20045;-78
2023/08/02 09:49:20;;;;;;;7.13;5.25;;;16.30;89.80;;;;;;5057453;28;20572;-77
2023/08/02 09:51:46;;;;;;;5.50;4.88;;;16.40;89.80;;;;;;5040904;28;20072;-77
2023/08/02 09:54:14;;;;;;;7.30;5.00;;;16.40;89.90;;;;;;5057168;28;20047;-77
2023/08/02 09:56:41;;;;;;;8.05;5.55;;;16.40;90.00;;;;;;5057422;28;20391;-78
2023/08/02 09:59:08;;;;;;;5.72;4.47;;;16.40;90.00;;;;;;5057530;28;20076;-79
2023/08/02 10:01:35;;;;;;;5.30;4.47;;;16.50;90.00;;;;;;5073313;28;20082;-80
2023/08/02 10:04:14;;;;;;;4.75;3.85;;;16.50;90.00;;;;;;5073414;28;20087;-77
2023/08/02 10:06:49;;;;;;;5.88;3.50;;;16.60;90.10;;;;;;5053980;28;20496;-77
2023/08/02 10:09:20;;;;;;;4.57;3.33;;;16.60;90.10;;;;;;5056655;28;20040;-78
2023/08/02 10:12:04;;;;;;;4.90;3.45;;;16.60;90.10;;;;;;5073757;28;20142;-75
2023/08/02 10:14:30;;;;;;;;;;;16.60;90.20;;;;;;5074308;28;20172;-77
2023/08/02 10:17:00;;;;;;;6.95;3.20;;;16.60;90.00;;;;;;5056543;28;20371;-77
2023/08/02 10:19:27;;;;;;;5.45;2.80;;;16.60;90.10;;;;;;5073669;28;20040;-77
2023/08/02 10:21:53;;;;;;;4.50;2.65;;;16.60;90.10;;;;;;5056749;28;20479;-77
2023/08/02 10:24:20;;;;;;;4.15;2.60;;;16.70;90.10;;;;;;5073484;28;20040;-77
2023/08/02 10:26:46;;;;;;;3.40;2.20;;;16.70;90.10;;;;;;5057568;28;20051;-78
2023/08/02 10:29:12;;;;;;;5.07;2.42;;;16.70;90.10;;;;;;5074247;28;20052;-77
2023/08/02 10:31:40;;;;;;;3.15;2.35;;;16.70;90.10;;;;;;5057837;28;20066;-77
2023/08/02 10:34:34;;;;;;;3.58;2.40;;;16.70;90.10;;;;;;5041350;28;20462;-77
2023/08/02 10:37:00;;;;;;;3.67;2.60;;;16.80;90.20;;;;;;5066215;28;20044;-77
2023/08/02 10:39:45;;;;;;;2.75;1.88;;;16.80;90.30;;;;;;5056970;28;20543;-76
2023/08/02 10:42:14;;;;;;;2.78;2.10;;;16.90;90.40;;;;;;5073872;28;20442;-77
2023/08/02 10:44:55;;;;;;;2.83;1.90;;;16.90;90.40;;;;;;5073050;28;20082;-76
2023/08/02 10:47:25;;;;;;;2.72;2.13;;;16.90;90.50;;;;;;5073486;28;20056;-76
2023/08/02 10:49:51;;;;;;;3.38;2.05;;;17.00;90.50;;;;;;5056441;28;20045;-76
2023/08/02 10:52:23;;;;;;;2.35;1.98;;;17.00;90.50;;;;;;5072904;28;20048;-76
2023/08/02 10:55:08;;;;;;;3.03;2.22;;;17.10;90.60;;;;;;5073044;28;20044;-76
2023/08/02 10:57:35;;;;;;;3.70;2.20;;;17.20;90.70;;;;;;5072111;28;20392;-75
2023/08/02 11:00:15;;;;;;;3.00;1.95;;;17.20;90.70;;;;;;5072567;28;20086;-76
2023/08/02 11:02:51;;;;;;;3.45;1.95;;;17.30;90.80;;;;;;5055425;28;20036;-76
2023/08/02 11:05:38;;;;;;;1.90;1.70;;;17.30;90.80;;;;;;5055314;28;20078;-76
2023/08/02 11:08:04;;;;;;;2.97;2.00;;;17.40;90.80;;;;;;5072351;28;20066;-76
2023/08/02 11:10:29;;;;;;;3.38;2.10;;;17.50;90.90;;;;;;5071745;28;20044;-77
2023/08/02 11:12:55;;;;;;;3.42;1.88;;;17.60;90.90;;;;;;5038461;28;20044;-76
2023/08/02 11:15:22;;;;;;;2.53;1.80;;;17.60;90.90;;;;;;5038635;28;20125;-76
2023/08/02 11:17:53;;;;;;;2.88;1.88;;;17.70;90.90;;;;;;5054942;28;20041;-77
2023/08/02 11:20:27;;;;;;;2.50;1.80;;;17.70;90.90;;;;;;5054583;28;20043;-77
2023/08/02 11:22:53;;;;;;;4.30;2.40;;;17.80;90.90;;;;;;5054822;28;20094;-78
2023/08/02 11:25:20;;;;;;;3.15;2.63;;;17.80;90.90;;;;;;5071653;28;20140;-77
2023/08/02 11:27:46;;;;;;;2.95;2.58;;;17.90;91.10;;;;;;5054836;28;20044;-78
2023/08/02 11:30:12;;;;;;;3.47;2.95;;;18.00;91.30;;;;;;5038346;28;20044;-78
2023/08/02 11:32:45;;;;;;;3.92;3.08;;;18.20;91.50;;;;;;5054815;28;20548;-78
2023/08/02 11:35:18;;;;;;;3.05;2.58;;;18.30;91.60;;;;;;5071165;28;20048;-78
2023/08/02 11:37:44;;;;;;;3.50;2.63;;;18.50;91.60;;;;;;5070793;28;20060;-78
2023/08/02 11:40:11;;;;;;;3.67;2.92;;;18.50;91.50;;;;;;5054639;28;20051;-79
2023/08/02 11:42:51;;;;;;;3.03;2.72;;;18.70;91.60;;;;;;5038531;28;20079;-78
2023/08/02 11:45:30;;;;;;;3.28;2.72;;;18.80;91.40;;;;;;5071585;28;20036;-78
2023/08/02 11:47:57;;;;;;;2.42;2.22;;;18.90;91.20;;;;;;5071379;28;20048;-78
2023/08/02 11:50:27;;;;;;;3.38;2.47;;;18.90;91.10;;;;;;5071039;28;20049;-78
2023/08/02 11:53:03;;;;;;;2.92;2.67;;;19.00;91.00;;;;;;5054835;28;20506;-78
2023/08/02 11:55:29;;;;;;;3.90;2.95;;;19.10;90.90;;;;;;5054943;28;20376;-78
2023/08/02 11:57:55;;;;;;;4.38;2.90;;;19.20;90.90;;;;;;5071458;28;20055;-78
2023/08/02 12:00:21;;;;;;;2.53;2.33;;;19.30;90.70;;;;;;5071467;28;20032;-78
2023/08/02 12:02:47;;;;;;;3.00;2.33;;;19.30;90.40;;;;;;5054868;28;20064;-78
2023/08/02 12:05:22;;;;;;;3.85;2.58;;;19.40;90.20;;;;;;5070971;28;20491;-77
2023/08/02 12:07:48;;;;;;;3.70;2.72;;;19.50;90.00;;;;;;5054661;28;20044;-77
2023/08/02 12:10:28;;;;;;;3.00;2.40;;;19.50;89.70;;;;;;5038237;28;20080;-78
2023/08/02 12:12:54;;;;;;;3.95;2.70;;;19.60;89.30;;;;;;5070901;28;20045;-78
2023/08/02 12:15:20;;;;;;;3.72;3.05;;;19.60;89.30;;;;;;5054019;28;20041;-78
2023/08/02 12:17:45;;;;;;;6.65;2.78;;;19.70;89.70;;;;;;5053913;28;20066;-77
2023/08/02 12:20:31;;;;;;;2.40;2.05;;;19.70;90.10;;;;;;5070765;28;20040;-77
2023/08/02 12:22:57;;;;;;;3.05;2.75;;;19.90;90.10;;;;;;5054551;28;20037;-77
2023/08/02 12:25:23;;;;;;;3.88;2.40;;;20.10;90.20;;;;;;5037349;28;20391;-78
2023/08/02 12:28:08;;;;;;;3.65;2.35;;;20.20;90.10;;;;;;5070682;28;20044;-77
2023/08/02 12:30:34;;;;;;;3.85;2.72;;;20.40;89.50;;;;;;5054192;28;20129;-78
2023/08/02 12:33:00;;;;;;;3.42;2.92;;;20.50;89.40;;;;;;5070434;28;20072;-78
2023/08/02 12:35:26;;;;;;;2.80;2.47;;;20.60;88.70;;;;;;5070514;28;20086;-77
2023/08/02 12:37:52;;;;;;;3.38;2.53;;;20.70;88.20;;;;;;5070171;28;20136;-76
2023/08/02 12:40:18;;;;;;;2.10;1.90;;;20.80;87.50;;;;;;5070412;28;20506;-76
2023/08/02 12:42:44;;;;;;;3.03;2.50;;;20.90;87.00;;;;;;5053940;28;20033;-76
2023/08/02 12:45:09;;;;;;;2.42;1.98;;;21.00;85.90;;;;;;5054067;28;20527;-76
2023/08/02 12:47:35;;;;;;;2.38;1.73;;;21.10;85.20;;;;;;5037426;28;20079;-76